Welcome to our Virtual Airline
Sign-in:

Flight MFC681

  • Submitted By: Rick Lechow
  • Departure Airport: Hydaburg SPB (HYG)
  • Arrival Airport: Point Baker SPB (KPB)
  • Aircraft: DHC2 BEAVERA (N001MM-AM)
  • Flight Time: 00.54.03
  • Date Submitted: 2018/04/10
  • Route: FOLLOW THE TOUR FP
  • Status: Accepted
Flight Details
Gross Revenue:
(5 load / $ 52.00 per unit
$ 260.00
Fuel Cost:
(54.8847 fuel used @ 5.1 / unit)
$ 279.91

Additional Log Information:

View Log

FS[06:29] ----- Flight Opened -----
FS[06:29] Cigar Box - 1.1.4.0
FS[06:29] FS: Prepar3D V4
FS[06:29] FSUIPC: v5.122
FS[06:29] Flight Number: MFC681
FS[06:29] FS Aircraft: DHC-2A Misty Moorings 3 Amphibian dirty
FS[06:29] FS Model: DHC2
FS[06:29] FS Type: DeHavilland
FS[06:29] Departure: HYG
FS[06:29] Arrival: KPB
FS[06:29] Flight Level: 2500
FS[06:29] Flight Type: H
FS[06:29] Passengers: 5
FS[06:29] FOB: 369 lbs
FS[06:29] Gate: n/a
FS[06:29] NOTE: Parking Brake Ignored
FS[06:29] Crash Detection: Disabled
FS[06:29] Crash Detection Aircraft: Disabled
FS[06:29] Engines: 1 Piston
FS[06:29] NOTE: Boarding has started
FS[06:29] FS: Paused
FS[06:29] Engine 1: Started
FS[06:29] Light Data: Navigation ON
FS[06:29] Light Data: Beacon ON
FS[06:29] Light Data: Strobe lights ON
FS[06:29] Main Door Closed
FS[06:29] COM1: 118.50
FS[06:29] COM2: 127.80
FS[06:29] Transponder: 1200
FS[06:29] NAV1: 113.70
FS[06:29] NAV2: 110.60
FS[06:29] ADF1: 284.0
FS[06:29] ADF2: 240.0
FS[06:29] Navigation Mode: NAV
FS[06:29] FS: Unpaused
FS[06:33] NOTE: Taxi started
FS[06:33] Flaps: Position 1
FS[06:33] Flaps: Position 2
FS[06:34] NOTE: ----- TAKE OFF -----
FS[06:34] GS: 60 knots
FS[06:34] TAS: 60 knots
FS[06:34] IAS: 60 knots
FS[06:34] VS: 6 fpm
FS[06:34] FOB: 368 lbs
FS[06:34] Heading: 196°
FS[06:34] Pitch: 3°
FS[06:34] Bank: 0°
FS[06:34] Aircraft Weight: 4138.33 lbs
FS[06:34] Nearest Airport: HYG
FS[06:34] Distance: 0.25 miles
FS[06:34] Runway: ???
FS[06:34] Ground Surface: Water
FS[06:34] Ground Condition: Normal
FS[06:34] NOTE: Weather Report
FS[06:34] Wind Heading: 338°
FS[06:34] Wind Speed: 0 knots
FS[06:34] OAT: 15° C
FS[06:34] TAT: 15° C
FS[06:34] Precipitation: None
FS[06:34] Dew Point: 5° C
FS[06:34] Visibility: 62 miles
FS[06:34] METAR: No METAR available for HYG.
FS[06:34] NOTE: Climb started
FS[06:34] Flaps: Position 1
FS[06:34] GS: 66 knots
FS[06:34] TAS: 67 knots
FS[06:34] IAS: 66 knots
FS[06:34] VS: 549 fpm
FS[06:34] View Mode: Spot Plane
FS[06:34] Flaps: Position 0
FS[06:34] GS: 75 knots
FS[06:34] TAS: 77 knots
FS[06:34] IAS: 76 knots
FS[06:34] VS: 660 fpm
FS[06:36] Autopilot: Engaged
FS[06:36] AGL: 1316 ft
FS[06:36] AMSL: 1322 ft
FS[06:37] NOTE: TOC reached
FS[06:37] NOTE: Cruise started
FS[06:37] GS: 112 knots
FS[06:37] TAS: 113 knots
FS[06:37] IAS: 110 knots
FS[06:37] VS: 114 fpm
FS[06:37] FOB: 358 lbs
FS[06:37] Heading: 266°
FS[06:37] Pitch: 1°
FS[06:37] Bank: -1°
FS[06:37] Aircraft Weight: 4128.84 lbs
FS[06:41] Recovery: Flight Saved
FS[06:49] Recovery: Flight Saved
FS[06:56] Recovery: Flight Saved
FS[06:58] Engine 1: Stopped
FS[06:58] Engine 1: Started
FS[07:04] Recovery: Flight Saved
FS[07:12] Recovery: Flight Saved
FS[07:20] FS: Paused
FS[07:20] FS: Unpaused
FS[07:20] Autopilot: Disengaged
FS[07:20] AGL: 839 ft
FS[07:20] AMSL: 839 ft
FS[07:20] NOTE: TOD reached
FS[07:20] NOTE: Descent started
FS[07:20] GS: 91 knots
FS[07:20] TAS: 92 knots
FS[07:20] IAS: 91 knots
FS[07:20] VS: -403 fpm
FS[07:20] FOB: 250 lbs
FS[07:20] Heading: 294°
FS[07:20] Pitch: 0°
FS[07:20] Bank: -4°
FS[07:20] Aircraft Weight: 4020.50 lbs
FS[07:20] NOTE: On approach
FS[07:20] Flaps: Position 1
FS[07:20] GS: 89 knots
FS[07:20] TAS: 89 knots
FS[07:20] IAS: 89 knots
FS[07:20] VS: -520 fpm
FS[07:20] Flaps: Position 2
FS[07:20] GS: 87 knots
FS[07:20] TAS: 88 knots
FS[07:20] IAS: 87 knots
FS[07:20] VS: -449 fpm
FS[07:21] Flaps: Position 3
FS[07:21] GS: 66 knots
FS[07:21] TAS: 66 knots
FS[07:21] IAS: 66 knots
FS[07:21] VS: -468 fpm
FS[07:21] NOTE: ----- LANDED -----
FS[07:21] Landing Rate: -134.57 fpm
FS[07:21] GS: 54 knots
FS[07:21] TAS: 54 knots
FS[07:21] IAS: 54 knots
FS[07:21] VS: -131 fpm
FS[07:21] FOB: 249 lbs
FS[07:21] Heading: 337°
FS[07:21] Pitch: 1°
FS[07:21] Bank: 1°
FS[07:21] Aircraft Weight: 4019.15 lbs
FS[07:21] Nearest Airport: KPB
FS[07:21] Distance: 0.29 miles
FS[07:21] Runway: ???
FS[07:21] Ground Surface: Water
FS[07:21] Ground Condition: Normal
FS[07:21] NOTE: Weather Report
FS[07:21] Wind Heading: 338°
FS[07:21] Wind Speed: 0 knots
FS[07:21] OAT: 15° C
FS[07:21] TAT: 15° C
FS[07:21] Precipitation: None
FS[07:21] Dew Point: 4° C
FS[07:21] Visibility: 62 miles
FS[07:21] METAR: KPBF 101753Z AUTO 34011KT 10SM SCT036 14/04 A3034 RMK AO2 SLP274 T01390044 10144 20072 50005KPBG 101753Z AUTO 14010KT 10SM BKN039 OVC050 04/M07 A3014 RMK AO2 SLP210 T00391072 10039 21022 58014KPBH 101815Z AUTO 23009KT 10SM OVC036 M01/M08 A3011 RMK AO2 T10121076KPBI 101753Z 13013KT 10SM SCT027CB SCT033 SCT065 30/22 A3001 RMK AO2 LTG DSNT S SLP162 CB S MOV E CB DSNT S W-N T03000222 10306 20228 58021KPBX 101815Z AUTO 31004KT 10SM BKN049 09/M02 A3020 RMK AO2 T00871017
FS[07:21] View Mode: Virtual Cockpit
FS[07:21] NOTE: Taxi started
FS[07:21] Flaps: Position 1
FS[07:21] Flaps: Position 0
FS[07:24] FS: Paused
FS[07:24] Gate: n/a
FS[07:24] NOTE: Flight Completed
FS[07:24] FS Aircraft: DHC-2A Misty Moorings 3 Amphibian dirty
FS[07:24] FS Model: DHC2
FS[07:24] FS Type: DeHavilland
FS[07:24] FOB: 248 lbs
FS[07:24] Fuel Used: 121 lbs
FS[07:24] Flight Time: 00:54:03
FS[07:24] Flight Time (Dawn): 00:00:00
FS[07:24] Flight Time (Day): 00:54:03
FS[07:24] Flight Time (Dusk): 00:00:00
FS[07:24] Flight Time (Night): 00:00:00
FS[07:24] Total Landings: 1
FS[07:24] MaxSim Rate: 0x
FS[07:24] Cigar Box - 1.1.4.0
FS[07:24] ----- Flight Closed -----

Route Map